createdAt,value
2017-08-07T00:00:24.818Z,67.28
2017-08-07T00:02:52.483Z,67.73
2017-08-07T00:05:20.105Z,68.28
2017-08-07T00:07:47.726Z,68.35
2017-08-07T00:10:15.346Z,68.00
2017-08-07T00:12:42.936Z,68.34
2017-08-07T00:15:10.556Z,68.10
2017-08-07T00:17:38.150Z,68.92
2017-08-07T00:20:05.794Z,68.30
2017-08-07T00:22:33.399Z,68.18
2017-08-07T00:25:01.007Z,67.95
2017-08-07T00:27:28.640Z,68.05
2017-08-07T00:29:56.238Z,68.35
2017-08-07T00:32:23.868Z,68.45
2017-08-07T00:34:51.467Z,68.87
2017-08-07T00:37:19.099Z,68.49
2017-08-07T00:39:46.762Z,68.22
2017-08-07T00:42:14.394Z,68.21
2017-08-07T00:44:41.993Z,68.32
2017-08-07T00:47:09.637Z,68.86
2017-08-07T00:49:37.238Z,69.19
2017-08-07T00:52:04.935Z,69.74
2017-08-07T00:54:32.543Z,69.09
2017-08-07T00:57:00.163Z,69.00
2017-08-07T00:59:27.890Z,68.54
2017-08-07T01:01:55.523Z,68.09
2017-08-07T01:04:23.122Z,68.88
2017-08-07T01:06:50.830Z,69.24
2017-08-07T01:09:18.414Z,69.13
2017-08-07T01:11:46.139Z,69.82
2017-08-07T01:14:13.743Z,69.77
2017-08-07T01:16:41.380Z,69.32
2017-08-07T01:19:08.990Z,68.89
2017-08-07T01:21:36.681Z,69.21
2017-08-07T01:24:04.266Z,70.00
2017-08-07T01:26:32.031Z,69.61
2017-08-07T01:28:59.658Z,70.39
2017-08-07T01:31:27.264Z,70.43
2017-08-07T01:33:54.887Z,70.10
2017-08-07T01:36:22.503Z,70.68
2017-08-07T01:38:50.128Z,70.34
2017-08-07T01:41:17.785Z,70.38
2017-08-07T01:43:45.448Z,70.23
2017-08-07T01:46:13.039Z,69.77
2017-08-07T01:48:40.672Z,70.21
2017-08-07T01:51:08.343Z,70.80
2017-08-07T01:53:35.993Z,70.70
2017-08-07T01:56:03.594Z,70.79
2017-08-07T01:58:31.238Z,70.90
2017-08-07T02:00:58.885Z,71.29
2017-08-07T02:03:26.519Z,70.40
2017-08-07T02:05:54.118Z,70.33
2017-08-07T02:08:21.755Z,70.35
2017-08-07T02:10:49.387Z,70.00
2017-08-07T02:13:17.032Z,70.79
2017-08-07T02:15:44.646Z,70.52
2017-08-07T02:18:12.226Z,70.91
2017-08-07T02:20:39.834Z,70.70
2017-08-07T02:23:07.423Z,71.08
2017-08-07T02:25:35.094Z,70.45
2017-08-07T02:28:02.786Z,70.74
2017-08-07T02:30:30.463Z,70.57
2017-08-07T02:32:58.068Z,71.29
2017-08-07T02:35:25.700Z,70.49
2017-08-07T02:37:53.311Z,70.22
2017-08-07T02:40:20.917Z,70.76
2017-08-07T02:42:48.576Z,70.39
2017-08-07T02:45:16.222Z,70.15
2017-08-07T02:47:43.838Z,70.53
2017-08-07T02:50:11.446Z,70.59
2017-08-07T02:52:39.102Z,70.82
2017-08-07T02:55:06.718Z,70.78
2017-08-07T02:57:34.474Z,70.80
2017-08-07T03:00:02.067Z,71.25
2017-08-07T03:02:29.732Z,70.73
2017-08-07T03:04:57.339Z,70.64
2017-08-07T03:07:25.034Z,70.27
2017-08-07T03:09:52.635Z,70.01
2017-08-07T03:12:20.266Z,70.17
2017-08-07T03:14:47.871Z,70.79
2017-08-07T03:17:15.554Z,71.26
2017-08-07T03:19:43.179Z,71.24
2017-08-07T03:22:10.767Z,71.16
2017-08-07T03:24:38.405Z,71.48
2017-08-07T03:27:06.004Z,72.24
2017-08-07T03:29:33.651Z,71.57
2017-08-07T03:32:01.273Z,71.62
2017-08-07T03:34:28.906Z,72.53
2017-08-07T03:36:56.539Z,72.70
2017-08-07T03:39:24.188Z,71.27
2017-08-07T03:41:51.811Z,71.34
2017-08-07T03:44:19.407Z,71.49
2017-08-07T03:46:47.105Z,71.95
2017-08-07T03:49:14.711Z,72.26
2017-08-07T03:51:42.327Z,71.28
2017-08-07T03:54:09.932Z,71.59
2017-08-07T03:56:37.723Z,70.59
2017-08-07T03:59:05.354Z,70.75
2017-08-07T04:01:33.006Z,71.51
2017-08-07T04:04:00.610Z,71.48
2017-08-07T04:06:28.235Z,71.36
2017-08-07T04:08:55.908Z,71.30
2017-08-07T04:11:23.530Z,71.82
2017-08-07T04:13:51.133Z,71.57
2017-08-07T04:16:18.842Z,71.80
2017-08-07T04:18:46.799Z,71.98
2017-08-07T04:21:14.424Z,71.99
2017-08-07T04:23:42.033Z,72.30
2017-08-07T04:26:09.711Z,72.28
2017-08-07T04:28:37.383Z,72.91
2017-08-07T04:31:05.005Z,73.74
2017-08-07T04:33:32.628Z,74.52
2017-08-07T04:36:00.293Z,75.01
2017-08-07T04:38:27.905Z,75.14
2017-08-07T04:40:55.560Z,75.15
2017-08-07T04:43:23.191Z,75.40
2017-08-07T04:45:50.783Z,75.81
2017-08-07T04:48:18.402Z,75.12
2017-08-07T04:50:46.011Z,75.03
2017-08-07T04:53:13.641Z,74.65
2017-08-07T04:55:41.274Z,73.99
2017-08-07T04:58:08.939Z,73.78
2017-08-07T05:00:36.534Z,73.87
2017-08-07T05:03:04.246Z,73.04
2017-08-07T05:05:31.851Z,73.10
2017-08-07T05:07:59.447Z,72.89
2017-08-07T05:10:27.063Z,72.32
2017-08-07T05:12:54.670Z,72.07
2017-08-07T05:15:22.287Z,71.83
2017-08-07T05:17:49.937Z,72.00
2017-08-07T05:20:17.566Z,71.92
2017-08-07T05:22:45.174Z,72.49
2017-08-07T05:25:12.823Z,72.03
2017-08-07T05:27:40.464Z,70.84
2017-08-07T05:30:08.111Z,71.34
2017-08-07T05:32:35.727Z,69.96
2017-08-07T05:35:03.332Z,70.00
2017-08-07T05:37:30.958Z,69.16
2017-08-07T05:39:58.574Z,69.18
2017-08-07T05:42:26.219Z,68.76
2017-08-07T05:44:53.835Z,69.43
2017-08-07T05:47:21.478Z,68.95
2017-08-07T05:49:49.088Z,67.56
2017-08-07T05:52:16.726Z,67.81
2017-08-07T05:54:44.330Z,68.82
2017-08-07T05:57:11.974Z,67.95
2017-08-07T05:59:39.584Z,68.64
2017-08-07T06:02:07.274Z,68.53
2017-08-07T06:04:34.891Z,68.20
2017-08-07T06:07:02.657Z,68.48
2017-08-07T06:09:30.318Z,69.02
2017-08-07T06:11:57.968Z,68.55
2017-08-07T06:14:25.663Z,68.05
2017-08-07T06:16:53.323Z,67.73
2017-08-07T06:19:20.944Z,67.53
2017-08-07T06:21:48.587Z,67.57
2017-08-07T06:24:16.190Z,66.37
2017-08-07T06:26:43.846Z,67.08
2017-08-07T06:29:11.590Z,67.64
2017-08-07T06:31:39.301Z,65.88
2017-08-07T06:34:06.898Z,65.71
2017-08-07T06:36:34.502Z,65.43
2017-08-07T06:39:02.159Z,65.12
2017-08-07T06:41:29.751Z,65.90
2017-08-07T06:43:57.383Z,65.17
2017-08-07T06:46:25.010Z,64.85
2017-08-07T06:48:52.683Z,64.17
2017-08-07T06:51:20.308Z,64.30
2017-08-07T06:53:47.994Z,63.55
2017-08-07T06:56:15.606Z,63.42
2017-08-07T06:58:43.211Z,64.44
2017-08-07T07:01:10.862Z,63.72
2017-08-07T07:03:38.531Z,62.83
2017-08-07T07:06:06.159Z,63.52
2017-08-07T07:08:33.775Z,62.97
2017-08-07T07:11:01.403Z,63.50
2017-08-07T07:13:29.031Z,62.57
2017-08-07T07:15:56.685Z,63.81
2017-08-07T07:18:24.292Z,63.03
2017-08-07T07:20:51.914Z,63.36
2017-08-07T07:23:19.512Z,62.86
2017-08-07T07:25:47.230Z,62.98
2017-08-07T07:28:14.815Z,62.11
2017-08-07T07:30:42.523Z,61.50
2017-08-07T07:33:10.115Z,62.68
2017-08-07T07:35:37.726Z,61.27
2017-08-07T07:38:05.315Z,62.25
2017-08-07T07:40:32.939Z,61.22
2017-08-07T07:43:00.527Z,60.99
2017-08-07T07:45:28.191Z,60.75
2017-08-07T07:47:55.785Z,60.79
2017-08-07T07:50:23.411Z,60.48
2017-08-07T07:52:51.008Z,61.05
2017-08-07T07:55:18.646Z,60.13
2017-08-07T07:57:46.324Z,61.07
2017-08-07T08:00:13.982Z,60.68
2017-08-07T08:02:41.590Z,60.30
2017-08-07T08:05:09.203Z,59.97
2017-08-07T08:07:36.802Z,60.41
2017-08-07T08:10:04.421Z,58.07
2017-08-07T08:12:32.011Z,58.51
2017-08-07T08:14:59.678Z,59.25
2017-08-07T08:17:27.278Z,58.83
2017-08-07T08:19:54.942Z,58.12
2017-08-07T08:22:22.644Z,58.10
2017-08-07T08:24:50.304Z,58.71
2017-08-07T08:27:17.958Z,57.31
2017-08-07T08:29:45.571Z,56.17
2017-08-07T08:32:13.205Z,55.46
2017-08-07T08:34:40.867Z,55.96
2017-08-07T08:37:08.530Z,56.73
2017-08-07T08:39:36.170Z,55.74
2017-08-07T08:42:03.839Z,54.44
2017-08-07T08:44:31.455Z,53.72
2017-08-07T08:46:59.171Z,54.45
2017-08-07T08:49:26.775Z,54.21
2017-08-07T08:51:54.422Z,54.02
2017-08-07T08:54:22.056Z,54.13
2017-08-07T08:56:49.669Z,54.26
2017-08-07T08:59:17.291Z,53.88
2017-08-07T09:01:44.897Z,53.31
2017-08-07T09:04:12.507Z,52.09
2017-08-07T09:06:40.146Z,52.73
2017-08-07T09:09:07.730Z,53.63
2017-08-07T09:11:35.468Z,53.03
2017-08-07T09:14:03.053Z,51.56
2017-08-07T09:16:30.691Z,51.80
2017-08-07T09:18:58.323Z,50.81
2017-08-07T09:21:25.945Z,51.13
2017-08-07T09:23:53.538Z,51.57
2017-08-07T09:26:21.181Z,51.96
2017-08-07T09:28:48.774Z,52.09
2017-08-07T09:31:16.447Z,51.49
2017-08-07T09:33:44.030Z,50.94
2017-08-07T09:36:11.664Z,50.72
2017-08-07T09:38:39.278Z,51.66
2017-08-07T09:41:06.922Z,49.55
2017-08-07T09:43:34.532Z,49.78
2017-08-07T09:46:02.127Z,48.53
2017-08-07T09:48:29.797Z,48.37
2017-08-07T09:50:57.462Z,49.32
2017-08-07T09:53:25.058Z,48.59
2017-08-07T09:55:52.674Z,48.21
2017-08-07T09:58:20.298Z,48.03
2017-08-07T10:00:47.901Z,49.28
2017-08-07T10:03:15.518Z,47.86
2017-08-07T10:05:43.114Z,47.12
2017-08-07T10:08:10.739Z,45.67
2017-08-07T10:10:38.335Z,46.81
2017-08-07T10:13:05.962Z,47.17
2017-08-07T10:15:33.562Z,44.61
2017-08-07T10:18:01.187Z,44.51
2017-08-07T10:20:28.775Z,43.16
2017-08-07T10:22:56.414Z,42.90
2017-08-07T10:25:24.036Z,44.39
2017-08-07T10:27:51.631Z,43.60
2017-08-07T10:30:19.219Z,44.96
2017-08-07T10:32:46.862Z,44.41
2017-08-07T10:35:14.465Z,43.76
2017-08-07T10:37:42.058Z,42.60
2017-08-07T10:40:09.679Z,42.07
2017-08-07T10:42:37.306Z,41.65
2017-08-07T10:45:04.911Z,41.10
2017-08-07T10:47:32.493Z,40.50
2017-08-07T10:50:00.126Z,40.32
2017-08-07T10:52:27.715Z,40.71
2017-08-07T10:54:55.355Z,40.46
2017-08-07T10:57:22.963Z,40.55
2017-08-07T10:59:50.623Z,38.84
2017-08-07T11:02:18.210Z,38.19
2017-08-07T11:04:45.832Z,38.86
2017-08-07T11:07:13.500Z,39.02
2017-08-07T11:09:41.127Z,39.18
2017-08-07T11:12:08.732Z,39.39
2017-08-07T11:14:36.405Z,38.24
2017-08-07T11:17:03.994Z,38.53
2017-08-07T11:19:31.631Z,37.28
2017-08-07T11:21:59.227Z,37.02
2017-08-07T11:24:26.846Z,37.76
2017-08-07T11:26:54.458Z,38.23
2017-08-07T11:29:22.072Z,37.49
2017-08-07T11:31:49.663Z,37.08
2017-08-07T11:34:17.398Z,37.92
2017-08-07T11:36:44.994Z,37.29
2017-08-07T11:39:12.611Z,39.40
2017-08-07T11:41:40.214Z,37.53
2017-08-07T11:44:07.876Z,36.49
2017-08-07T11:46:35.495Z,36.14
2017-08-07T11:49:03.235Z,36.15
2017-08-07T11:51:30.835Z,36.80
2017-08-07T11:53:58.475Z,35.90
2017-08-07T11:56:26.063Z,36.57
2017-08-07T11:58:53.710Z,35.94
2017-08-07T12:01:21.354Z,35.89
2017-08-07T12:03:48.946Z,35.47
2017-08-07T12:06:16.583Z,34.63
2017-08-07T12:08:44.178Z,34.92
2017-08-07T12:11:11.799Z,34.01
2017-08-07T12:13:39.387Z,35.89
2017-08-07T12:16:07.001Z,36.15
2017-08-07T12:18:34.595Z,34.44
2017-08-07T12:21:02.223Z,34.56
2017-08-07T12:23:29.803Z,33.88
2017-08-07T12:25:57.440Z,33.63
2017-08-07T12:28:25.056Z,34.03
2017-08-07T12:30:52.695Z,33.35
2017-08-07T12:33:20.288Z,33.02
2017-08-07T12:35:47.946Z,32.69
2017-08-07T12:38:15.542Z,33.88
2017-08-07T12:40:43.171Z,32.82
2017-08-07T12:43:10.762Z,32.46
2017-08-07T12:45:38.383Z,32.74
2017-08-07T12:48:05.987Z,32.31
2017-08-07T12:50:33.603Z,31.79
2017-08-07T12:53:01.208Z,31.90
2017-08-07T12:55:28.844Z,33.26
2017-08-07T12:57:56.442Z,32.16
2017-08-07T13:00:24.086Z,31.71
2017-08-07T13:02:53.395Z,32.30
2017-08-07T13:05:21.014Z,31.57
2017-08-07T13:07:48.646Z,31.36
2017-08-07T13:10:16.274Z,32.54
2017-08-07T13:12:43.934Z,31.39
2017-08-07T13:15:11.629Z,31.20
2017-08-07T13:17:39.238Z,31.40
2017-08-07T13:20:06.834Z,32.27
2017-08-07T13:22:34.487Z,32.78
2017-08-07T13:25:02.111Z,31.61
2017-08-07T13:27:29.706Z,31.83
2017-08-07T13:29:57.314Z,31.75
2017-08-07T13:32:24.945Z,31.66
2017-08-07T13:34:52.539Z,31.10
2017-08-07T13:37:20.159Z,31.66
2017-08-07T13:39:47.742Z,29.91
2017-08-07T13:42:15.370Z,30.14
2017-08-07T13:44:42.964Z,29.68
2017-08-07T13:47:10.586Z,28.88
2017-08-07T13:49:38.187Z,29.44
2017-08-07T13:52:05.815Z,29.36
2017-08-07T13:54:33.403Z,28.87
2017-08-07T13:57:01.031Z,29.85
2017-08-07T13:59:28.632Z,29.28
2017-08-07T14:01:56.254Z,29.72
2017-08-07T14:04:23.858Z,27.59
2017-08-07T14:06:51.506Z,26.87
2017-08-07T14:09:19.105Z,28.08
2017-08-07T14:11:46.751Z,29.08
2017-08-07T14:14:14.383Z,28.32
2017-08-07T14:16:42.018Z,28.52
2017-08-07T14:19:09.611Z,26.93
2017-08-07T14:21:37.207Z,27.44
2017-08-07T14:24:04.850Z,27.88
2017-08-07T14:26:32.435Z,28.56
2017-08-07T14:29:00.065Z,27.55
2017-08-07T14:31:27.684Z,29.10
2017-08-07T14:33:55.327Z,28.95
2017-08-07T14:36:22.939Z,28.85
2017-08-07T14:38:50.596Z,29.40
2017-08-07T14:41:18.194Z,28.47
2017-08-07T14:43:45.841Z,29.34
2017-08-07T14:46:13.437Z,29.19
2017-08-07T14:48:41.107Z,29.03
2017-08-07T14:51:08.711Z,28.97
2017-08-07T14:53:36.355Z,29.01
2017-08-07T14:56:03.937Z,28.70
2017-08-07T14:58:31.578Z,28.01
2017-08-07T15:00:59.186Z,28.37
2017-08-07T15:03:26.815Z,27.55
2017-08-07T15:05:54.413Z,26.19
2017-08-07T15:08:22.070Z,27.58
2017-08-07T15:10:49.668Z,27.34
2017-08-07T15:13:17.322Z,27.91
2017-08-07T15:15:44.930Z,28.24
2017-08-07T15:18:12.564Z,28.09
2017-08-07T15:20:40.174Z,28.06
2017-08-07T15:23:07.803Z,28.25
2017-08-07T15:25:35.424Z,28.63
2017-08-07T15:28:03.059Z,28.19
2017-08-07T15:30:30.649Z,28.49
2017-08-07T15:32:58.272Z,28.68
2017-08-07T15:35:25.995Z,28.65
2017-08-07T15:37:53.641Z,28.68
2017-08-07T15:40:21.235Z,27.82
2017-08-07T15:42:48.889Z,27.58
2017-08-07T15:45:16.498Z,28.31
2017-08-07T15:47:44.129Z,28.40
2017-08-07T15:50:11.731Z,29.09
2017-08-07T15:52:39.356Z,30.03
2017-08-07T15:55:06.963Z,29.17
2017-08-07T15:57:34.598Z,29.67
2017-08-07T16:00:02.211Z,31.28
2017-08-07T16:02:29.839Z,31.38
2017-08-07T16:04:57.438Z,30.58
2017-08-07T16:07:25.077Z,30.41
2017-08-07T16:09:52.685Z,30.98
2017-08-07T16:12:20.330Z,30.51
2017-08-07T16:14:47.935Z,31.16
2017-08-07T16:17:15.585Z,30.67
2017-08-07T16:19:43.189Z,31.47
2017-08-07T16:22:10.776Z,30.98
2017-08-07T16:24:38.418Z,31.22
2017-08-07T16:27:06.018Z,31.10
2017-08-07T16:29:33.638Z,31.47
2017-08-07T16:32:01.241Z,31.99
2017-08-07T16:34:28.852Z,32.21
2017-08-07T16:36:56.454Z,32.98
2017-08-07T16:39:24.070Z,32.26
2017-08-07T16:41:51.660Z,32.89
2017-08-07T16:44:19.358Z,33.55
2017-08-07T16:46:46.954Z,33.18
2017-08-07T16:49:14.570Z,32.87
2017-08-07T16:51:42.181Z,33.06
2017-08-07T16:54:09.809Z,32.24
2017-08-07T16:56:37.411Z,32.01
2017-08-07T16:59:05.051Z,32.71
2017-08-07T17:01:32.663Z,33.51
2017-08-07T17:04:00.322Z,33.53
2017-08-07T17:06:27.913Z,34.15
2017-08-07T17:08:55.540Z,34.18
2017-08-07T17:11:23.231Z,33.98
2017-08-07T17:13:50.857Z,34.58
2017-08-07T17:16:18.451Z,34.76
2017-08-07T17:18:46.092Z,34.79
2017-08-07T17:21:13.698Z,34.71
2017-08-07T17:23:41.332Z,35.74
2017-08-07T17:26:08.939Z,35.81
2017-08-07T17:28:36.592Z,35.74
2017-08-07T17:31:04.210Z,34.98
2017-08-07T17:33:31.794Z,35.82
2017-08-07T17:35:59.476Z,36.62
2017-08-07T17:38:27.083Z,36.94
2017-08-07T17:40:54.717Z,37.70
2017-08-07T17:43:22.322Z,36.40
2017-08-07T17:45:49.942Z,36.89
2017-08-07T17:48:17.534Z,36.59
2017-08-07T17:50:45.210Z,35.63
2017-08-07T17:53:12.832Z,36.92
2017-08-07T17:55:40.482Z,36.50
2017-08-07T17:58:08.079Z,36.43
2017-08-07T18:00:35.738Z,36.04
2017-08-07T18:03:03.343Z,35.58
2017-08-07T18:05:30.965Z,36.23
2017-08-07T18:07:58.565Z,36.07
2017-08-07T18:10:26.210Z,36.34
2017-08-07T18:12:53.819Z,36.39
2017-08-07T18:15:21.454Z,36.27
2017-08-07T18:17:49.058Z,36.99
2017-08-07T18:20:16.742Z,36.69
2017-08-07T18:22:44.378Z,37.76
2017-08-07T18:25:12.010Z,39.08
2017-08-07T18:27:39.604Z,38.53
2017-08-07T18:30:07.210Z,39.02
2017-08-07T18:32:34.838Z,39.09
2017-08-07T18:35:02.435Z,39.40
2017-08-07T18:37:30.071Z,39.26
2017-08-07T18:39:57.674Z,40.31
2017-08-07T18:42:25.306Z,40.28
2017-08-07T18:44:52.914Z,40.58
2017-08-07T18:47:20.556Z,40.44
2017-08-07T18:49:48.151Z,40.84
2017-08-07T18:52:15.912Z,41.16
2017-08-07T18:54:43.533Z,41.51
2017-08-07T18:57:11.165Z,41.81
2017-08-07T18:59:38.841Z,42.11
2017-08-07T19:02:06.495Z,42.55
2017-08-07T19:04:34.099Z,42.40
2017-08-07T19:07:01.791Z,42.88
2017-08-07T19:09:29.390Z,43.18
2017-08-07T19:11:57.099Z,43.28
2017-08-07T19:14:24.695Z,43.31
2017-08-07T19:16:52.361Z,43.74
2017-08-07T19:19:19.965Z,43.83
2017-08-07T19:21:47.610Z,44.20
2017-08-07T19:24:15.223Z,44.44
2017-08-07T19:26:42.856Z,44.81
2017-08-07T19:29:10.471Z,44.85
2017-08-07T19:31:38.093Z,44.87
2017-08-07T19:34:05.735Z,45.10
2017-08-07T19:36:33.363Z,45.28
2017-08-07T19:39:00.994Z,45.68
2017-08-07T19:41:28.648Z,46.07
2017-08-07T19:43:56.236Z,46.36
2017-08-07T19:46:23.850Z,46.52
2017-08-07T19:48:51.462Z,46.77
2017-08-07T19:51:19.136Z,47.25
2017-08-07T19:53:46.735Z,47.26
2017-08-07T19:56:14.366Z,47.66
2017-08-07T19:58:41.959Z,47.83
2017-08-07T20:01:09.596Z,47.59
2017-08-07T20:03:37.197Z,47.25
2017-08-07T20:06:04.811Z,47.83
2017-08-07T20:08:32.403Z,48.17
2017-08-07T20:11:00.007Z,48.05
2017-08-07T20:13:27.647Z,48.46
2017-08-07T20:15:55.260Z,51.83
2017-08-07T20:18:22.887Z,51.46
2017-08-07T20:20:50.514Z,50.56
2017-08-07T20:23:18.163Z,47.84
2017-08-07T20:25:45.783Z,44.94
2017-08-07T20:28:13.434Z,43.24
2017-08-07T20:30:41.080Z,40.79
2017-08-07T20:33:08.735Z,39.90
2017-08-07T20:35:36.322Z,38.37
2017-08-07T20:38:03.968Z,40.02
2017-08-07T20:40:31.583Z,39.49
2017-08-07T20:42:59.215Z,40.03
2017-08-07T20:45:26.882Z,37.84
2017-08-07T20:47:54.527Z,36.44
2017-08-07T20:50:22.166Z,37.48
2017-08-07T20:52:49.841Z,39.00
2017-08-07T20:55:17.471Z,40.29
2017-08-07T20:57:45.070Z,41.31
2017-08-07T21:00:12.730Z,42.45
2017-08-07T21:02:40.335Z,43.15
2017-08-07T21:05:08.080Z,44.14
2017-08-07T21:07:35.677Z,44.72
2017-08-07T21:10:03.319Z,45.58
2017-08-07T21:12:30.933Z,46.15
2017-08-07T21:14:58.559Z,46.77
2017-08-07T21:17:26.253Z,47.06
2017-08-07T21:19:53.869Z,47.46
2017-08-07T21:22:21.482Z,47.91
2017-08-07T21:24:49.119Z,48.17
2017-08-07T21:27:16.734Z,48.36
2017-08-07T21:29:44.382Z,48.84
2017-08-07T21:32:12.004Z,48.93
2017-08-07T21:34:39.750Z,49.58
2017-08-07T21:37:07.363Z,49.50
2017-08-07T21:39:35.002Z,49.47
2017-08-07T21:42:02.633Z,49.49
2017-08-07T21:44:30.378Z,49.81
2017-08-07T21:46:57.991Z,49.81
2017-08-07T21:49:25.586Z,50.12
2017-08-07T21:51:53.240Z,50.65
2017-08-07T21:54:20.834Z,50.70
2017-08-07T21:56:48.642Z,50.00
2017-08-07T21:59:16.242Z,49.97
2017-08-07T22:01:43.894Z,49.75
2017-08-07T22:04:11.493Z,49.83
2017-08-07T22:06:39.236Z,50.87
2017-08-07T22:09:06.831Z,51.52
2017-08-07T22:11:34.426Z,51.49
2017-08-07T22:14:02.077Z,51.89
2017-08-07T22:16:29.680Z,51.89
2017-08-07T22:18:57.349Z,52.33
2017-08-07T22:21:24.935Z,52.08
2017-08-07T22:23:52.606Z,52.46
2017-08-07T22:26:20.219Z,53.04
2017-08-07T22:28:47.867Z,53.67
2017-08-07T22:31:15.480Z,54.15
2017-08-07T22:33:43.110Z,54.15
2017-08-07T22:36:10.771Z,53.95
2017-08-07T22:38:38.405Z,54.10
2017-08-07T22:41:06.038Z,54.37
2017-08-07T22:43:33.679Z,54.38
2017-08-07T22:46:01.266Z,54.69
2017-08-07T22:48:28.915Z,54.77
2017-08-07T22:50:56.523Z,55.56
2017-08-07T22:53:24.287Z,55.88
2017-08-07T22:55:51.922Z,56.21
2017-08-07T22:58:19.526Z,56.22
2017-08-07T23:00:47.172Z,56.30
2017-08-07T23:03:14.764Z,56.56
2017-08-07T23:05:42.401Z,56.46
2017-08-07T23:08:09.995Z,56.47
2017-08-07T23:10:37.655Z,56.49
2017-08-07T23:13:05.238Z,56.73
2017-08-07T23:15:32.882Z,57.12
2017-08-07T23:18:00.486Z,57.27
2017-08-07T23:20:28.227Z,57.79
2017-08-07T23:22:56.045Z,58.14
2017-08-07T23:25:23.642Z,58.55
2017-08-07T23:27:51.358Z,58.98
2017-08-07T23:30:18.967Z,59.17
2017-08-07T23:32:46.590Z,59.38
2017-08-07T23:35:14.181Z,59.89
2017-08-07T23:37:41.820Z,60.27
2017-08-07T23:40:09.414Z,60.58
2017-08-07T23:42:37.045Z,60.85
2017-08-07T23:45:04.640Z,61.03
2017-08-07T23:47:32.462Z,61.03
2017-08-07T23:50:00.055Z,61.25
2017-08-07T23:52:27.646Z,61.10
2017-08-07T23:54:55.278Z,61.23
2017-08-07T23:57:22.867Z,61.41
2017-08-07T23:59:50.498Z,61.67
